Time;durP1;ratioP1;P1;durP2;ratioP2;P2;SDS_P1;SDS_P2;PMS_P1;PMS_P2;Temp;Humidity;BMP_temperature;BMP_pressure;BME280_temperature;BME280_humidity;BME280_pressure;Samples;Min_cycle;Max_cycle;Signal;HPM_P1;HPM_P2
2021/07/28 00:00:48;;;;;;;;;7.50;7.50;;;;;19.94;69.99;100440.69;5017601;28;45758;-79
2021/07/28 00:03:13;;;;;;;;;5.00;5.00;;;;;19.89;69.81;100443.88;5017574;28;45568;-79
2021/07/28 00:05:39;;;;;;;;;6.75;6.50;;;;;19.90;70.00;100450.88;5016712;28;47813;-79
2021/07/28 00:08:04;;;;;;;;;6.75;6.75;;;;;19.86;70.05;100441.59;5016794;28;46024;-79
2021/07/28 00:10:30;;;;;;;;;7.50;7.50;;;;;19.90;69.58;100447.38;5016991;28;45690;-76
2021/07/28 00:12:56;;;;;;;;;6.50;6.25;;;;;19.84;69.76;100432.94;5017540;28;45521;-78
2021/07/28 00:15:24;;;;;;;;;5.50;5.00;;;;;19.88;69.72;100447.53;5016753;28;47272;-78
2021/07/28 00:17:55;;;;;;;;;6.00;6.00;;;;;19.85;69.27;100444.41;5016783;28;45993;-77
2021/07/28 00:20:28;;;;;;;;;5.00;5.00;;;;;19.78;69.14;100444.25;5016661;28;45619;-78
2021/07/28 00:25:38;;;;;;;;;5.00;5.00;;;;;19.75;68.61;100452.59;5017110;28;46048;-78
2021/07/28 00:28:04;;;;;;;;;3.00;3.00;;;;;19.65;68.81;100434.16;4998823;28;45738;-80
2021/07/28 00:30:30;;;;;;;;;4.75;4.75;;;;;19.67;68.55;100444.63;5016632;28;45762;-80
2021/07/28 00:32:56;;;;;;;;;3.75;3.00;;;;;19.49;68.46;100418.28;5016625;28;45853;-79
2021/07/28 00:35:21;;;;;;;;;4.00;3.75;;;;;19.59;68.37;100434.88;4998626;28;46572;-79
2021/07/28 00:37:47;;;;;;;;;6.00;4.25;;;;;19.55;68.41;100435.38;5021744;28;45599;-78
2021/07/28 00:43:35;;;;;;;;;4.50;4.50;;;;;19.46;68.52;100423.94;5026460;28;45591;-77
2021/07/28 00:46:02;;;;;;;;;5.00;3.50;;;;;19.48;68.19;100421.97;5021015;28;45514;-77
2021/07/28 00:48:27;;;;;;;;;5.00;4.50;;;;;19.42;68.59;100419.94;5017241;28;45875;-77
2021/07/28 00:50:55;;;;;;;;;4.75;3.50;;;;;19.37;68.19;100409.00;5017227;28;45433;-78
2021/07/28 00:53:21;;;;;;;;;4.50;4.00;;;;;19.45;68.33;100426.75;5017066;28;45628;-77
2021/07/28 00:55:48;;;;;;;;;5.00;5.00;;;;;19.45;68.51;100424.09;5016624;28;45760;-78
2021/07/28 00:58:14;;;;;;;;;4.75;4.50;;;;;19.42;68.43;100429.75;5015897;28;46281;-79
2021/07/28 01:00:40;;;;;;;;;4.50;3.50;;;;;19.40;68.58;100423.75;5016464;28;45627;-77
2021/07/28 01:03:06;;;;;;;;;5.00;4.50;;;;;19.43;68.45;100428.75;5016617;28;45694;-78
2021/07/28 01:05:31;;;;;;;;;6.00;5.00;;;;;19.34;68.75;100419.13;5015814;28;45592;-78
2021/07/28 01:07:57;;;;;;;;;4.00;4.00;;;;;19.32;68.45;100413.16;5016364;28;46184;-76
2021/07/28 01:13:44;;;;;;;;;5.50;5.00;;;;;19.26;68.63;100430.63;5016482;28;45703;-78
2021/07/28 01:16:13;;;;;;;;;4.25;4.25;;;;;19.22;68.50;100430.09;5016324;28;45675;-77
2021/07/28 01:18:41;;;;;;;;;4.00;4.00;;;;;19.19;68.80;100435.78;4997847;28;46425;-78
2021/07/28 01:21:09;;;;;;;;;4.00;4.00;;;;;19.14;69.29;100430.13;5016642;28;45634;-77
2021/07/28 01:23:35;;;;;;;;;5.50;4.00;;;;;19.02;68.83;100412.88;5016423;28;45705;-76
2021/07/28 01:26:03;;;;;;;;;5.00;4.00;;;;;19.13;68.77;100430.28;5016427;28;46385;-77
2021/07/28 01:28:30;;;;;;;;;6.00;5.75;;;;;19.09;69.24;100429.81;5016174;28;46694;-78
2021/07/28 01:31:04;;;;;;;;;5.25;5.00;;;;;19.12;68.80;100434.78;5020610;28;45950;-76
2021/07/28 01:33:32;;;;;;;;;5.25;4.50;;;;;19.10;69.20;100434.13;5020675;28;45492;-76
2021/07/28 01:35:59;;;;;;;;;4.25;4.00;;;;;18.99;68.93;100421.19;5022400;28;45739;-76
2021/07/28 01:38:27;;;;;;;;;5.75;5.50;;;;;19.04;69.48;100439.28;5022763;28;45951;-76
2021/07/28 01:44:15;;;;;;;;;5.25;4.50;;;;;18.95;69.22;100438.44;5015659;28;45694;-74
2021/07/28 01:46:40;;;;;;;;;6.00;6.00;;;;;18.94;69.47;100431.50;5015938;28;46143;-76
2021/07/28 01:49:05;;;;;;;;;5.00;5.00;;;;;18.81;69.06;100425.84;5015216;28;46041;-76
2021/07/28 01:51:31;;;;;;;;;4.50;4.00;;;;;18.96;69.47;100457.84;5015117;28;45720;-77
2021/07/28 01:53:56;;;;;;;;;5.75;5.75;;;;;18.90;69.48;100439.94;5015384;28;45730;-77
2021/07/28 01:56:22;;;;;;;;;5.00;5.00;;;;;18.94;69.18;100447.44;5015388;28;45531;-77
2021/07/28 01:58:54;;;;;;;;;4.50;4.00;;;;;18.92;69.28;100456.53;5010366;28;48119;-79
2021/07/28 02:01:20;;;;;;;;;4.75;4.75;;;;;18.78;69.21;100436.81;4995740;28;45620;-78
2021/07/28 02:03:45;;;;;;;;;3.25;3.25;;;;;18.86;68.62;100456.22;4995611;28;45565;-77
2021/07/28 02:06:10;;;;;;;;;4.50;4.00;;;;;18.86;68.61;100455.38;4995574;28;46671;-77
2021/07/28 02:08:36;;;;;;;;;3.75;3.75;;;;;18.83;68.90;100456.56;4995057;28;47358;-77
2021/07/28 02:14:23;;;;;;;;;6.25;5.00;;;;;18.74;68.92;100449.56;4995323;28;45588;-78
2021/07/28 02:16:48;;;;;;;;;5.50;5.50;;;;;18.75;68.54;100450.41;4995436;28;46319;-77
2021/07/28 02:19:13;;;;;;;;;4.00;4.00;;;;;18.76;68.46;100457.38;4995192;28;45749;-77
2021/07/28 02:21:39;;;;;;;;;4.25;3.00;;;;;18.76;68.49;100458.19;4995241;28;45725;-77
2021/07/28 02:24:04;;;;;;;;;3.00;3.00;;;;;18.67;68.54;100445.94;4995079;28;45616;-76
2021/07/28 02:26:30;;;;;;;;;3.25;2.50;;;;;18.71;68.42;100462.34;4995064;28;46235;-77
2021/07/28 02:28:55;;;;;;;;;2.00;1.25;;;;;18.61;68.69;100446.59;4995233;28;46369;-78
2021/07/28 02:31:20;;;;;;;;;4.00;3.00;;;;;18.60;68.85;100439.63;4995060;28;45575;-78
2021/07/28 02:33:46;;;;;;;;;3.00;3.00;;;;;18.69;68.78;100457.19;4995053;28;45663;-76
2021/07/28 02:36:11;;;;;;;;;6.00;4.00;;;;;18.64;67.97;100450.72;4995271;28;46742;-77
2021/07/28 02:38:36;;;;;;;;;4.75;4.00;;;;;18.72;68.18;100453.41;4995017;28;46082;-76
2021/07/28 02:44:24;;;;;;;;;6.00;4.50;;;;;18.77;68.31;100462.53;4994824;28;45567;-78
2021/07/28 02:46:49;;;;;;;;;3.25;2.75;;;;;18.78;68.27;100458.88;4994624;28;45560;-77
2021/07/28 02:49:14;;;;;;;;;3.50;3.25;;;;;18.82;68.15;100448.75;4994794;28;46332;-77
2021/07/28 02:51:40;;;;;;;;;4.75;3.50;;;;;18.87;68.39;100457.03;4994097;28;45523;-77
2021/07/28 02:54:06;;;;;;;;;2.75;2.50;;;;;18.84;68.22;100462.66;4993779;28;45681;-77
2021/07/28 02:59:53;;;;;;;;;4.25;3.25;;;;;18.79;68.42;100443.75;5003463;28;45805;-77
2021/07/28 03:02:18;;;;;;;;;4.50;4.50;;;;;18.93;68.33;100455.53;5014517;28;45584;-78
2021/07/28 03:04:44;;;;;;;;;3.50;2.50;;;;;18.96;67.97;100471.13;5014578;28;45642;-78
2021/07/28 03:07:09;;;;;;;;;4.00;3.00;;;;;18.95;67.71;100466.84;5014542;28;45670;-76
2021/07/28 03:09:35;;;;;;;;;4.25;3.25;;;;;18.94;68.08;100466.00;5014635;28;46345;-77
2021/07/28 03:12:03;;;;;;;;;1.50;1.50;;;;;18.81;67.65;100452.38;5014538;28;45655;-77
2021/07/28 03:14:28;;;;;;;;;3.00;3.00;;;;;18.92;67.73;100475.97;5014671;28;45535;-74
2021/07/28 03:16:53;;;;;;;;;3.50;2.75;;;;;18.91;67.92;100474.28;5014202;28;46382;-78
2021/07/28 03:19:19;;;;;;;;;3.00;3.00;;;;;18.89;67.81;100476.31;5014191;28;46071;-76
2021/07/28 03:21:47;;;;;;;;;5.25;3.50;;;;;18.86;67.82;100476.63;5019432;28;45559;-77
2021/07/28 03:24:12;;;;;;;;;2.50;1.50;;;;;18.79;67.33;100471.13;5021039;28;45567;-77
2021/07/28 03:26:38;;;;;;;;;3.75;3.75;;;;;18.78;67.35;100482.78;5017890;28;46378;-77
2021/07/28 03:29:03;;;;;;;;;4.00;3.00;;;;;18.65;67.57;100466.47;5017339;28;45764;-76
2021/07/28 03:31:30;;;;;;;;;4.25;3.00;;;;;18.68;67.46;100479.41;5016721;28;45624;-76
2021/07/28 03:33:55;;;;;;;;;3.00;3.00;;;;;18.65;67.73;100477.09;5014223;28;45672;-77
2021/07/28 03:36:20;;;;;;;;;2.25;2.25;;;;;18.66;67.62;100476.13;5014109;28;45642;-80
2021/07/28 03:38:46;;;;;;;;;3.25;3.00;;;;;18.65;67.56;100466.47;5014329;28;45568;-77
2021/07/28 03:44:33;;;;;;;;;4.50;3.75;;;;;18.66;67.14;100468.16;5013848;28;45837;-79
2021/07/28 03:46:59;;;;;;;;;4.00;3.00;;;;;18.65;67.22;100482.41;5013951;28;46344;-77
2021/07/28 03:49:24;;;;;;;;;3.00;2.00;;;;;18.61;67.69;100477.59;5014188;28;46341;-78
2021/07/28 03:51:49;;;;;;;;;4.25;4.00;;;;;18.63;67.26;100483.56;5013711;28;45726;-77
2021/07/28 03:54:15;;;;;;;;;5.75;4.00;;;;;18.44;66.97;100451.00;5013893;28;45683;-78
2021/07/28 04:00:03;;;;;;;;;4.00;3.00;;;;;18.63;67.13;100480.91;5011779;28;45966;-76
2021/07/28 04:02:29;;;;;;;;;4.00;3.00;;;;;18.49;67.23;100466.44;4996101;28;45692;-77
2021/07/28 04:04:55;;;;;;;;;4.75;3.25;;;;;18.59;67.19;100483.06;5000444;28;45967;-74
2021/07/28 04:07:20;;;;;;;;;5.00;4.00;;;;;18.51;66.84;100477.72;5019472;28;45737;-75
2021/07/28 04:09:45;;;;;;;;;4.00;2.75;;;;;18.64;66.89;100495.84;5019381;28;46149;-75
2021/07/28 04:15:32;;;;;;;;;4.00;3.00;;;;;18.60;66.55;100495.34;5018128;28;45572;-79
2021/07/28 04:17:58;;;;;;;;;3.50;3.00;;;;;18.56;66.37;100491.38;5017135;28;45794;-76
2021/07/28 04:20:23;;;;;;;;;4.00;2.25;;;;;18.54;66.91;100492.47;5017403;28;45507;-77
2021/07/28 04:22:48;;;;;;;;;4.75;4.00;;;;;18.52;66.79;100499.75;5017291;28;45780;-77
2021/07/28 04:25:14;;;;;;;;;3.00;2.00;;;;;18.46;66.48;100499.41;5016738;28;45710;-79
2021/07/28 04:27:39;;;;;;;;;2.00;2.00;;;;;18.46;66.49;100502.06;5016908;28;47025;-78
2021/07/28 04:30:05;;;;;;;;;3.50;2.75;;;;;18.43;66.41;100502.41;5016878;28;45669;-81
2021/07/28 04:32:31;;;;;;;;;2.00;1.50;;;;;18.42;66.37;100508.69;5016806;28;45733;-78
2021/07/28 04:34:56;;;;;;;;;4.75;3.50;;;;;18.43;66.59;100510.38;4998828;28;45403;-79
2021/07/28 04:37:22;;;;;;;;;4.25;3.00;;;;;18.20;65.98;100473.97;5015039;28;47586;-80
2021/07/28 04:39:47;;;;;;;;;4.00;3.25;;;;;18.42;65.77;100508.69;5016569;28;46264;-79
2021/07/28 04:45:35;;;;;;;;;4.00;3.50;;;;;18.41;65.98;100507.03;5016494;28;45631;-78
2021/07/28 04:48:09;;;;;;;;;4.00;4.00;;;;;18.43;66.20;100506.88;5016570;28;46570;-79
2021/07/28 04:50:35;;;;;;;;;17.75;16.25;;;;;18.44;66.09;100519.16;4998530;28;47511;-78
2021/07/28 04:53:00;;;;;;;;;3.75;3.25;;;;;18.46;66.00;100510.03;5016270;28;45659;-78
2021/07/28 04:55:26;;;;;;;;;12.75;11.00;;;;;18.22;65.53;100470.19;5016290;28;45755;-78
2021/07/28 04:57:54;;;;;;;;;3.50;2.75;;;;;18.28;66.02;100466.06;5015738;28;45632;-78
2021/07/28 05:00:20;;;;;;;;;3.50;2.75;;;;;18.52;65.81;100499.75;5015639;28;47408;-77
2021/07/28 05:02:45;;;;;;;;;3.00;2.00;;;;;18.49;65.75;100508.06;5016530;28;45678;-79
2021/07/28 05:05:10;;;;;;;;;4.75;3.00;;;;;18.51;65.78;100514.03;5015982;28;45824;-78
2021/07/28 05:07:36;;;;;;;;;4.75;3.00;;;;;18.45;65.67;100502.25;5016346;28;45582;-79
2021/07/28 05:10:02;;;;;;;;;4.00;3.00;;;;;18.34;65.26;100492.78;5017146;28;45703;-79
2021/07/28 05:15:50;;;;;;;;;3.00;2.25;;;;;18.35;65.57;100515.63;5022378;28;45603;-77
2021/07/28 05:18:16;;;;;;;;;3.50;3.00;;;;;18.25;65.60;100506.97;5022184;28;45479;-78
2021/07/28 05:20:41;;;;;;;;;2.00;2.00;;;;;18.37;65.69;100518.13;5021267;28;45856;-78
2021/07/28 05:23:06;;;;;;;;;3.75;3.50;;;;;18.25;65.91;100492.88;5017156;28;45575;-78
2021/07/28 05:25:32;;;;;;;;;2.00;2.00;;;;;18.33;65.48;100506.19;5016102;28;45835;-78
2021/07/28 05:31:19;;;;;;;;;3.50;2.00;;;;;18.45;65.72;100519.00;5015906;28;45776;-77
2021/07/28 05:33:44;;;;;;;;;2.00;2.00;;;;;18.45;65.48;100515.50;5016763;28;45733;-77
2021/07/28 05:36:10;;;;;;;;;3.00;2.75;;;;;18.53;65.85;100520.81;5016494;28;45683;-78
2021/07/28 05:38:35;;;;;;;;;3.00;2.25;;;;;18.55;65.82;100526.00;5015584;28;45583;-77
2021/07/28 05:41:04;;;;;;;;;4.00;3.00;;;;;18.56;65.61;100522.38;4997617;28;47149;-77
2021/07/28 05:43:30;;;;;;;;;3.25;2.00;;;;;18.50;65.43;100512.38;5015724;28;45599;-77
2021/07/28 05:45:56;;;;;;;;;3.00;3.00;;;;;18.44;65.89;100506.72;5014016;28;45956;-76
2021/07/28 05:48:21;;;;;;;;;3.00;3.00;;;;;18.61;65.37;100531.50;5015708;28;46633;-78
2021/07/28 05:50:47;;;;;;;;;3.00;3.00;;;;;18.57;65.92;100527.50;5015706;28;45695;-78
2021/07/28 05:53:12;;;;;;;;;3.00;3.00;;;;;18.48;65.81;100520.47;5016059;28;45659;-79
2021/07/28 05:55:38;;;;;;;;;3.00;3.00;;;;;18.53;65.72;100523.47;4998355;28;45911;-78
2021/07/28 06:01:25;;;;;;;;;2.75;2.75;;;;;18.60;65.60;100544.94;5005302;28;46031;-79
2021/07/28 06:03:50;;;;;;;;;4.00;3.00;;;;;18.60;65.39;100544.94;5016778;28;45559;-78
2021/07/28 06:06:16;;;;;;;;;2.50;2.00;;;;;18.58;65.49;100539.78;5019315;28;45747;-77
2021/07/28 06:08:41;;;;;;;;;5.00;4.00;;;;;18.61;65.31;100546.59;5016678;28;45606;-77
2021/07/28 06:11:06;;;;;;;;;4.25;4.00;;;;;18.61;65.51;100544.78;5016051;28;45666;-77
2021/07/28 06:13:32;;;;;;;;;3.25;3.00;;;;;18.66;65.96;100539.81;5015864;28;45517;-78
2021/07/28 06:15:57;;;;;;;;;5.75;4.50;;;;;18.69;65.87;100558.06;5015953;28;45521;-78
2021/07/28 06:18:22;;;;;;;;;3.00;3.00;;;;;18.74;65.63;100546.94;5015759;28;46636;-79
2021/07/28 06:20:48;;;;;;;;;3.50;3.00;;;;;18.75;65.58;100560.06;5016855;28;46404;-79
2021/07/28 06:23:13;;;;;;;;;3.00;2.00;;;;;18.66;65.40;100549.59;5016790;28;45403;-79
2021/07/28 06:25:38;;;;;;;;;3.25;3.00;;;;;18.76;65.63;100552.94;5015944;28;46015;-78
2021/07/28 06:31:25;;;;;;;;;2.00;2.00;;;;;18.80;65.68;100562.22;5016304;28;46127;-77
2021/07/28 06:33:51;;;;;;;;;3.25;3.25;;;;;18.85;65.35;100570.53;5014169;28;45635;-76
2021/07/28 06:36:16;;;;;;;;;3.00;2.25;;;;;18.83;65.61;100559.25;5014559;28;45656;-74
2021/07/28 06:38:43;;;;;;;;;2.00;2.00;;;;;18.89;65.86;100565.75;5014608;28;45548;-77
2021/07/28 06:41:08;;;;;;;;;3.00;2.00;;;;;18.76;65.50;100539.66;5014650;28;46485;-75
2021/07/28 06:46:55;;;;;;;;;2.00;2.00;;;;;18.99;65.40;100566.41;5014520;28;45576;-76
2021/07/28 06:49:21;;;;;;;;;2.00;2.00;;;;;19.01;65.30;100562.59;5014760;28;46681;-76
2021/07/28 06:51:46;;;;;;;;;4.50;4.00;;;;;19.03;65.41;100568.56;5014584;28;46146;-76
2021/07/28 06:54:11;;;;;;;;;3.00;2.00;;;;;19.04;64.71;100570.25;5014616;28;45836;-75
2021/07/28 06:56:37;;;;;;;;;4.00;3.25;;;;;19.06;64.81;100568.22;5014705;28;45464;-76
2021/07/28 06:59:02;;;;;;;;;4.00;3.00;;;;;19.07;65.14;100575.22;5014386;28;45811;-75
2021/07/28 07:01:28;;;;;;;;;4.50;4.50;;;;;19.09;64.95;100586.50;5015561;28;45572;-76
2021/07/28 07:03:53;;;;;;;;;3.75;3.50;;;;;19.08;65.00;100576.03;5016973;28;45507;-77
2021/07/28 07:06:19;;;;;;;;;3.00;3.00;;;;;19.08;64.80;100574.22;5017316;28;45772;-74
2021/07/28 07:08:44;;;;;;;;;3.25;2.75;;;;;19.10;64.73;100582.88;5016842;28;45449;-76
2021/07/28 07:11:09;;;;;;;;;4.25;3.00;;;;;19.05;64.55;100569.25;5016147;28;46350;-73
2021/07/28 07:16:57;;;;;;;;;3.75;3.50;;;;;19.16;64.95;100578.72;5015070;28;45606;-73
2021/07/28 07:19:22;;;;;;;;;2.75;1.75;;;;;19.17;64.83;100580.34;5014355;28;47324;-73
2021/07/28 07:21:48;;;;;;;;;3.75;3.50;;;;;19.20;64.92;100580.88;5014068;28;46908;-76
2021/07/28 07:24:13;;;;;;;;;2.00;2.00;;;;;19.21;64.59;100577.22;5013881;28;45843;-73
2021/07/28 07:26:39;;;;;;;;;3.50;3.00;;;;;19.18;64.69;100569.56;5014145;28;45813;-75
2021/07/28 07:29:04;;;;;;;;;4.50;2.75;;;;;19.30;64.49;100583.38;5013733;28;47139;-73
2021/07/28 07:31:31;;;;;;;;;1.50;1.50;;;;;19.34;64.57;100591.81;4996018;28;47079;-75
2021/07/28 07:33:56;;;;;;;;;5.50;3.50;;;;;19.37;64.99;100583.53;5014118;28;45734;-74
2021/07/28 07:36:23;;;;;;;;;4.50;3.25;;;;;19.39;65.05;100589.50;5014303;28;45641;-76
2021/07/28 07:38:48;;;;;;;;;5.00;3.75;;;;;19.40;64.64;100584.03;5017367;28;46231;-79
2021/07/28 07:41:14;;;;;;;;;4.00;3.25;;;;;19.38;64.58;100585.19;5017996;28;46207;-77
2021/07/28 07:47:04;;;;;;;;;4.00;3.50;;;;;19.35;65.00;100582.84;5017801;28;45721;-75
2021/07/28 07:49:30;;;;;;;;;6.00;3.75;;;;;19.42;64.79;100589.19;5018110;28;46986;-77
2021/07/28 07:51:55;;;;;;;;;4.00;3.00;;;;;19.42;65.00;100587.34;5017787;28;46112;-77
2021/07/28 07:54:20;;;;;;;;;4.00;3.00;;;;;19.48;64.62;100580.56;5018594;28;45579;-79
2021/07/28 07:56:46;;;;;;;;;3.75;2.50;;;;;19.48;64.55;100573.44;5021255;28;45563;-77
2021/07/28 07:59:11;;;;;;;;;5.00;3.50;;;;;19.58;64.83;100592.69;5019196;28;46528;-78
2021/07/28 08:01:38;;;;;;;;;2.00;2.00;;;;;19.61;64.35;100594.16;5018572;28;46040;-78
2021/07/28 08:04:05;;;;;;;;;4.00;2.25;;;;;19.53;64.32;100578.25;5001085;28;45716;-78
2021/07/28 08:06:30;;;;;;;;;4.00;3.75;;;;;19.67;64.20;100585.53;5020556;28;45638;-75
2021/07/28 08:08:55;;;;;;;;;3.00;3.00;;;;;19.53;63.71;100557.81;5022104;28;46335;-78
2021/07/28 08:11:21;;;;;;;;;3.00;2.00;;;;;19.66;63.76;100578.53;5021023;28;45533;-74
2021/07/28 08:17:35;;;;;;;;;3.00;3.00;;;;;19.71;63.25;100589.50;5017571;28;45645;-75
2021/07/28 08:20:01;;;;;;;;;4.50;3.25;;;;;19.73;62.92;100597.31;4999493;28;46546;-80
2021/07/28 08:22:27;;;;;;;;;3.00;2.50;;;;;19.75;63.39;100592.69;5017406;28;46139;-78
2021/07/28 08:24:52;;;;;;;;;2.75;2.00;;;;;19.73;62.52;100584.03;5016969;28;45740;-77
2021/07/28 08:27:18;;;;;;;;;2.00;1.75;;;;;19.66;61.70;100576.72;5017126;28;45642;-79
2021/07/28 08:29:43;;;;;;;;;2.25;2.00;;;;;19.67;62.15;100574.91;5017113;28;45617;-77
2021/07/28 08:32:09;;;;;;;;;1.50;1.50;;;;;19.67;62.07;100575.72;4998885;28;45978;-77
2021/07/28 08:34:34;;;;;;;;;2.00;2.00;;;;;19.63;61.44;100566.44;5016889;28;45571;-79
2021/07/28 08:37:01;;;;;;;;;1.75;1.75;;;;;19.71;61.45;100568.22;5015411;28;45634;-75
2021/07/28 08:39:28;;;;;;;;;1.25;1.25;;;;;19.76;61.34;100571.22;5016718;28;46293;-75
2021/07/28 08:41:59;;;;;;;;;2.00;2.00;;;;;19.72;61.38;100571.72;5016586;28;46446;-74
2021/07/28 08:47:46;;;;;;;;;1.75;1.00;;;;;19.84;59.96;100581.84;5016577;28;45634;-78
2021/07/28 08:50:13;;;;;;;;;1.00;1.00;;;;;19.86;59.67;100579.88;5016193;28;45574;-75
2021/07/28 08:52:43;;;;;;;;;1.50;1.00;;;;;19.93;58.21;100574.66;4998455;28;45817;-77
2021/07/28 08:55:09;;;;;;;;;1.00;0.75;;;;;19.96;58.17;100579.66;4999374;28;45672;-80
2021/07/28 08:57:35;;;;;;;;;1.50;1.50;;;;;20.01;58.39;100582.63;5016865;28;45581;-79
2021/07/28 09:00:05;;;;;;;;;1.25;1.25;;;;;20.04;58.71;100585.78;5017105;28;47200;-79
2021/07/28 09:02:30;;;;;;;;;2.00;1.00;;;;;20.10;58.65;100590.41;5015818;28;46213;-76
2021/07/28 09:04:56;;;;;;;;;1.00;1.00;;;;;20.11;58.57;100591.25;5017085;28;46149;-78
2021/07/28 09:07:23;;;;;;;;;3.75;1.75;;;;;20.17;58.55;100593.25;4998766;28;45777;-74
2021/07/28 09:09:52;;;;;;;;;3.00;2.75;;;;;20.22;58.63;100588.22;5016322;28;47474;-75
2021/07/28 09:12:18;;;;;;;;;2.75;2.00;;;;;20.25;58.66;100579.06;5016235;28;46364;-78
2021/07/28 09:15:00;;;;;;;;;1.75;1.00;;;;;20.37;58.83;100580.38;5015966;28;45569;-77
2021/07/28 09:17:27;;;;;;;;;2.00;2.00;;;;;20.44;58.99;100581.34;5016437;28;45869;-78
2021/07/28 09:19:53;;;;;;;;;2.00;1.00;;;;;20.49;58.60;100579.84;5016444;28;46603;-78
2021/07/28 09:22:21;;;;;;;;;4.00;3.00;;;;;20.51;58.74;100572.47;5016436;28;45889;-80
2021/07/28 09:25:52;;;;;;;;;1.00;1.00;;;;;20.62;58.30;100589.91;5015740;28;45754;-78
2021/07/28 09:28:18;;;;;;;;;3.00;2.00;;;;;20.63;58.52;100572.94;5013838;28;45891;-77
2021/07/28 09:30:43;;;;;;;;;1.50;1.00;;;;;20.73;58.66;100583.38;5015698;28;46806;-75
2021/07/28 09:33:10;;;;;;;;;2.00;1.50;;;;;20.75;58.39;100576.03;5014464;28;45917;-76
2021/07/28 09:35:48;;;;;;;;;2.00;2.00;;;;;20.81;58.36;100584.16;5016174;28;45662;-76
2021/07/28 09:38:33;;;;;;;;;1.75;1.75;;;;;20.86;57.93;100586.28;4998281;28;45607;-77
2021/07/28 09:41:29;;;;;;;;;2.50;2.00;;;;;20.87;58.09;100586.13;5015651;28;46512;-75
2021/07/28 09:43:56;;;;;;;;;2.50;2.00;;;;;20.89;58.13;100588.59;4997550;28;47228;-76
2021/07/28 09:46:28;;;;;;;;;3.75;2.50;;;;;20.94;58.25;100594.22;5015958;28;45711;-77
2021/07/28 09:48:55;;;;;;;;;2.25;1.25;;;;;20.91;57.94;100579.41;5015935;28;45535;-77
2021/07/28 09:51:32;;;;;;;;;2.00;2.00;;;;;20.93;58.08;100577.41;5015716;28;46379;-77
2021/07/28 09:54:03;;;;;;;;;2.50;1.00;;;;;21.01;57.21;100597.00;4983559;28;47661;-77
2021/07/28 09:56:43;;;;;;;;;2.00;2.00;;;;;20.99;57.42;100594.53;4999000;28;45657;-77
2021/07/28 09:59:08;;;;;;;;;2.75;2.75;;;;;20.95;57.10;100577.22;5017142;28;45833;-75
2021/07/28 10:01:35;;;;;;;;;2.25;2.00;;;;;21.02;57.60;100594.16;5015359;28;46373;-78
2021/07/28 10:04:04;;;;;;;;;2.00;2.00;;;;;21.05;57.45;100593.81;5016733;28;45946;-77
2021/07/28 10:06:38;;;;;;;;;1.00;1.00;;;;;21.02;57.04;100582.69;5020004;28;45618;-75
2021/07/28 10:09:06;;;;;;;;;2.00;1.00;;;;;21.04;56.80;100594.00;5020082;28;45666;-76
2021/07/28 10:11:33;;;;;;;;;2.25;2.00;;;;;21.04;55.73;100600.16;5019393;28;46661;-76
2021/07/28 10:14:00;;;;;;;;;3.00;3.00;;;;;21.05;55.24;100591.16;5019627;28;46024;-76
2021/07/28 10:16:27;;;;;;;;;3.00;3.00;;;;;21.03;55.56;100589.66;5019649;28;45620;-77
2021/07/28 10:18:53;;;;;;;;;2.00;2.00;;;;;21.02;55.38;100598.66;5016726;28;45697;-77
2021/07/28 10:21:19;;;;;;;;;3.75;2.75;;;;;21.07;55.18;100591.78;5015860;28;47482;-75
2021/07/28 10:23:47;;;;;;;;;2.00;1.75;;;;;21.06;54.85;100587.47;5015959;28;46116;-76
2021/07/28 10:26:16;;;;;;;;;2.00;1.75;;;;;21.11;55.26;100586.94;5015311;28;45732;-76
2021/07/28 10:28:46;;;;;;;;;2.50;2.00;;;;;21.15;55.45;100596.28;4998272;28;45560;-77
2021/07/28 10:31:13;;;;;;;;;4.25;4.00;;;;;21.19;55.18;100592.25;4981591;28;46435;-77
2021/07/28 10:33:52;;;;;;;;;3.25;2.50;;;;;21.23;55.01;100596.22;5014380;28;45894;-75
2021/07/28 10:36:19;;;;;;;;;1.25;1.25;;;;;21.25;54.78;100594.22;5014708;28;45678;-76
2021/07/28 10:38:57;;;;;;;;;2.00;2.00;;;;;21.29;54.94;100587.50;5015182;28;45580;-77
2021/07/28 10:41:45;;;;;;;;;3.00;3.00;;;;;21.33;54.49;100594.97;4997227;28;46434;-77
2021/07/28 10:44:14;;;;;;;;;1.25;1.00;;;;;21.33;54.02;100583.47;5002609;28;45662;-76
2021/07/28 10:46:54;;;;;;;;;2.25;1.25;;;;;21.39;53.38;100593.41;5014655;28;45938;-76
2021/07/28 10:49:35;;;;;;;;;1.75;1.50;;;;;21.39;53.26;100590.75;5014662;28;45483;-76
2021/07/28 10:52:05;;;;;;;;;2.00;2.00;;;;;21.39;53.59;100577.41;5014328;28;46704;-75
2021/07/28 10:54:53;;;;;;;;;2.00;1.25;;;;;21.45;53.87;100584.69;5014210;28;46258;-77
2021/07/28 10:57:39;;;;;;;;;2.25;2.25;;;;;21.54;54.06;100591.63;5002071;28;45615;-75
2021/07/28 11:00:08;;;;;;;;;2.00;2.00;;;;;21.59;53.67;100586.56;5014396;28;45524;-76
2021/07/28 11:02:54;;;;;;;;;3.00;2.00;;;;;21.66;53.88;100587.50;5014298;28;45760;-76
2021/07/28 11:05:23;;;;;;;;;2.25;2.25;;;;;21.71;53.68;100582.47;5014277;28;46418;-77
2021/07/28 11:08:01;;;;;;;;;2.00;2.00;;;;;21.77;53.81;100583.56;5014340;28;45614;-77
2021/07/28 11:10:27;;;;;;;;;2.25;2.00;;;;;21.77;53.30;100571.06;5014768;28;45441;-77
2021/07/28 11:16:21;;;;;;;;;3.50;3.00;;;;;21.99;52.56;100577.38;5020843;28;45765;-76
2021/07/28 11:18:48;;;;;;;;;1.50;1.50;;;;;22.03;52.67;100585.81;5003735;28;45708;-75
2021/07/28 11:21:28;;;;;;;;;2.25;1.00;;;;;22.14;51.94;100588.03;5021441;28;45610;-76
2021/07/28 11:24:01;;;;;;;;;1.50;1.25;;;;;22.15;52.05;100579.03;5002779;28;45540;-77
2021/07/28 11:26:30;;;;;;;;;2.00;1.00;;;;;22.24;51.70;100598.47;5020871;28;45594;-74
2021/07/28 11:32:22;;;;;;;;;2.00;1.00;;;;;22.29;50.58;100599.56;5021143;28;45476;-77
2021/07/28 11:34:55;;;;;;;;;3.00;2.00;;;;;22.30;49.72;100603.84;5020667;28;46504;-76
2021/07/28 11:37:20;;;;;;;;;1.00;1.00;;;;;22.32;49.52;100591.16;5020528;28;47152;-77
2021/07/28 11:39:49;;;;;;;;;4.00;2.50;;;;;22.30;50.56;100590.50;5020414;28;45514;-76
2021/07/28 11:42:14;;;;;;;;;1.00;1.00;;;;;22.37;50.04;100599.44;5020928;28;45765;-77
2021/07/28 11:48:28;;;;;;;;;3.00;2.00;;;;;22.45;49.35;100595.84;5020622;28;45668;-77
2021/07/28 11:50:54;;;;;;;;;1.25;1.00;;;;;22.50;49.66;100604.13;5002710;28;45517;-76
2021/07/28 11:53:26;;;;;;;;;1.00;1.00;;;;;22.50;49.34;100609.47;5020397;28;45520;-76
2021/07/28 11:56:07;;;;;;;;;2.00;2.00;;;;;22.53;49.20;100611.75;5002792;28;45692;-76
2021/07/28 11:58:33;;;;;;;;;2.75;2.50;;;;;22.55;49.03;100607.06;5020691;28;45705;-76
2021/07/28 12:00:58;;;;;;;;;1.75;1.75;;;;;22.57;48.79;100607.69;5002620;28;45666;-76
2021/07/28 12:03:28;;;;;;;;;1.00;1.00;;;;;22.60;47.66;100610.00;5020690;28;45670;-78
2021/07/28 12:06:04;;;;;;;;;2.25;2.00;;;;;22.60;48.09;100608.16;5020289;28;47361;-75
2021/07/28 12:08:35;;;;;;;;;1.75;1.75;;;;;22.60;48.10;100600.16;5020608;28;46391;-78
2021/07/28 12:11:04;;;;;;;;;1.00;1.00;;;;;22.63;48.57;100609.63;5024438;28;45692;-75
2021/07/28 12:13:39;;;;;;;;;1.50;1.25;;;;;22.64;47.63;100610.47;5021832;28;45497;-77
2021/07/28 12:16:05;;;;;;;;;1.00;1.00;;;;;22.66;47.92;100611.09;5021203;28;46473;-77
2021/07/28 12:18:45;;;;;;;;;0.75;0.75;;;;;22.65;47.60;100610.28;5021290;28;45739;-79
2021/07/28 12:21:11;;;;;;;;;1.50;1.50;;;;;22.63;46.43;100616.81;5021330;28;45520;-77
2021/07/28 12:23:47;;;;;;;;;1.75;1.00;;;;;22.55;46.68;100612.41;5020703;28;45611;-77
2021/07/28 12:26:15;;;;;;;;;2.00;1.50;;;;;22.57;46.19;100626.38;5018123;28;46482;-77
2021/07/28 12:28:51;;;;;;;;;3.00;1.75;;;;;22.51;46.75;100617.28;5017715;28;45580;-74
2021/07/28 12:31:27;;;;;;;;;1.75;1.50;;;;;22.52;46.58;100623.44;4999853;28;45715;-77
2021/07/28 12:33:53;;;;;;;;;1.00;1.00;;;;;22.49;47.41;100624.66;5001367;28;45635;-74
2021/07/28 12:36:29;;;;;;;;;2.00;1.75;;;;;22.50;47.47;100633.50;5003240;28;46671;-74
2021/07/28 12:38:55;;;;;;;;;1.00;1.00;;;;;22.47;47.78;100629.34;5021812;28;46301;-76
2021/07/28 12:41:23;;;;;;;;;2.00;1.50;;;;;22.57;48.10;100635.22;5022538;28;45630;-73
2021/07/28 12:43:49;;;;;;;;;2.25;2.25;;;;;22.65;47.88;100634.31;5020315;28;45566;-75